sensor_id;sensor_type;location;lat;lon;timestamp;P1;durP1;ratioP1;P2;durP2;ratioP2
75935;SDS011;64614;32.062;34.834;2024-03-29T00:01:03;13.90;;;5.43;;
75935;SDS011;64614;32.062;34.834;2024-03-29T00:03:29;12.93;;;5.63;;
75935;SDS011;64614;32.062;34.834;2024-03-29T00:05:55;15.73;;;5.20;;
75935;SDS011;64614;32.062;34.834;2024-03-29T00:08:20;14.15;;;5.45;;
75935;SDS011;64614;32.062;34.834;2024-03-29T00:10:46;14.20;;;6.20;;
75935;SDS011;64614;32.062;34.834;2024-03-29T00:13:12;13.13;;;5.25;;
75935;SDS011;64614;32.062;34.834;2024-03-29T00:15:38;13.88;;;5.57;;
75935;SDS011;64614;32.062;34.834;2024-03-29T00:18:04;12.43;;;5.32;;
75935;SDS011;64614;32.062;34.834;2024-03-29T00:20:29;14.93;;;5.78;;
75935;SDS011;64614;32.062;34.834;2024-03-29T00:22:55;14.05;;;5.32;;
75935;SDS011;64614;32.062;34.834;2024-03-29T00:25:21;14.30;;;5.80;;
75935;SDS011;64614;32.062;34.834;2024-03-29T00:27:46;13.13;;;5.57;;
75935;SDS011;64614;32.062;34.834;2024-03-29T00:30:13;10.20;;;5.32;;
75935;SDS011;64614;32.062;34.834;2024-03-29T00:32:39;10.82;;;5.28;;
75935;SDS011;64614;32.062;34.834;2024-03-29T00:35:05;13.27;;;5.20;;
75935;SDS011;64614;32.062;34.834;2024-03-29T00:37:31;12.00;;;5.32;;
75935;SDS011;64614;32.062;34.834;2024-03-29T00:39:56;11.10;;;5.38;;
75935;SDS011;64614;32.062;34.834;2024-03-29T00:42:22;10.23;;;4.95;;
75935;SDS011;64614;32.062;34.834;2024-03-29T00:44:49;14.85;;;5.50;;
75935;SDS011;64614;32.062;34.834;2024-03-29T00:47:15;14.23;;;5.40;;
75935;SDS011;64614;32.062;34.834;2024-03-29T00:49:41;14.35;;;5.60;;
75935;SDS011;64614;32.062;34.834;2024-03-29T00:52:07;11.63;;;5.22;;
75935;SDS011;64614;32.062;34.834;2024-03-29T00:54:32;12.30;;;5.30;;
75935;SDS011;64614;32.062;34.834;2024-03-29T00:56:58;11.60;;;5.03;;
75935;SDS011;64614;32.062;34.834;2024-03-29T00:59:24;14.27;;;5.40;;
75935;SDS011;64614;32.062;34.834;2024-03-29T01:01:50;11.48;;;5.05;;
75935;SDS011;64614;32.062;34.834;2024-03-29T01:04:16;9.95;;;4.65;;
75935;SDS011;64614;32.062;34.834;2024-03-29T01:06:42;9.80;;;4.82;;
75935;SDS011;64614;32.062;34.834;2024-03-29T01:09:10;11.38;;;5.25;;
75935;SDS011;64614;32.062;34.834;2024-03-29T01:11:37;12.50;;;5.53;;
75935;SDS011;64614;32.062;34.834;2024-03-29T01:14:03;11.10;;;4.93;;
75935;SDS011;64614;32.062;34.834;2024-03-29T01:16:29;10.45;;;4.80;;
75935;SDS011;64614;32.062;34.834;2024-03-29T01:18:56;10.50;;;4.60;;
75935;SDS011;64614;32.062;34.834;2024-03-29T01:21:22;12.05;;;5.28;;
75935;SDS011;64614;32.062;34.834;2024-03-29T01:23:48;10.20;;;4.85;;
75935;SDS011;64614;32.062;34.834;2024-03-29T01:26:14;11.93;;;4.60;;
75935;SDS011;64614;32.062;34.834;2024-03-29T01:28:42;10.55;;;4.93;;
75935;SDS011;64614;32.062;34.834;2024-03-29T01:31:08;10.38;;;4.90;;
75935;SDS011;64614;32.062;34.834;2024-03-29T01:33:34;10.57;;;4.95;;
75935;SDS011;64614;32.062;34.834;2024-03-29T01:36:06;10.63;;;4.82;;
75935;SDS011;64614;32.062;34.834;2024-03-29T01:38:32;11.27;;;4.75;;
75935;SDS011;64614;32.062;34.834;2024-03-29T01:40:58;11.20;;;4.53;;
75935;SDS011;64614;32.062;34.834;2024-03-29T01:43:23;10.98;;;4.10;;
75935;SDS011;64614;32.062;34.834;2024-03-29T01:45:50;11.38;;;5.13;;
75935;SDS011;64614;32.062;34.834;2024-03-29T01:48:18;12.82;;;5.00;;
75935;SDS011;64614;32.062;34.834;2024-03-29T01:50:45;13.02;;;4.78;;
75935;SDS011;64614;32.062;34.834;2024-03-29T01:53:12;10.50;;;4.65;;
75935;SDS011;64614;32.062;34.834;2024-03-29T01:55:39;14.23;;;5.20;;
75935;SDS011;64614;32.062;34.834;2024-03-29T01:58:06;12.13;;;4.93;;
75935;SDS011;64614;32.062;34.834;2024-03-29T02:00:33;13.50;;;5.05;;
75935;SDS011;64614;32.062;34.834;2024-03-29T02:03:04;9.38;;;4.57;;
75935;SDS011;64614;32.062;34.834;2024-03-29T02:05:35;11.60;;;4.68;;
75935;SDS011;64614;32.062;34.834;2024-03-29T02:08:04;13.15;;;4.82;;
75935;SDS011;64614;32.062;34.834;2024-03-29T02:10:32;10.45;;;4.70;;
75935;SDS011;64614;32.062;34.834;2024-03-29T02:12:58;13.57;;;5.28;;
75935;SDS011;64614;32.062;34.834;2024-03-29T02:15:23;10.70;;;4.88;;
75935;SDS011;64614;32.062;34.834;2024-03-29T02:17:54;11.50;;;5.13;;
75935;SDS011;64614;32.062;34.834;2024-03-29T02:20:20;11.70;;;5.20;;
75935;SDS011;64614;32.062;34.834;2024-03-29T02:22:51;11.13;;;4.93;;
75935;SDS011;64614;32.062;34.834;2024-03-29T02:25:19;10.30;;;4.50;;
75935;SDS011;64614;32.062;34.834;2024-03-29T02:27:45;11.65;;;4.97;;
75935;SDS011;64614;32.062;34.834;2024-03-29T02:30:15;12.88;;;4.88;;
75935;SDS011;64614;32.062;34.834;2024-03-29T02:32:41;12.38;;;4.80;;
75935;SDS011;64614;32.062;34.834;2024-03-29T02:35:07;11.02;;;4.78;;
75935;SDS011;64614;32.062;34.834;2024-03-29T02:37:34;13.90;;;4.80;;
75935;SDS011;64614;32.062;34.834;2024-03-29T02:40:01;10.52;;;4.43;;
75935;SDS011;64614;32.062;34.834;2024-03-29T02:42:27;10.25;;;4.47;;
75935;SDS011;64614;32.062;34.834;2024-03-29T02:44:52;9.63;;;4.60;;
75935;SDS011;64614;32.062;34.834;2024-03-29T02:47:18;10.02;;;4.60;;
75935;SDS011;64614;32.062;34.834;2024-03-29T02:49:45;11.48;;;4.82;;
75935;SDS011;64614;32.062;34.834;2024-03-29T02:52:11;12.57;;;4.55;;
75935;SDS011;64614;32.062;34.834;2024-03-29T02:54:36;10.88;;;5.00;;
75935;SDS011;64614;32.062;34.834;2024-03-29T02:57:02;13.18;;;5.25;;
75935;SDS011;64614;32.062;34.834;2024-03-29T02:59:28;10.75;;;4.82;;
75935;SDS011;64614;32.062;34.834;2024-03-29T03:01:53;11.23;;;4.47;;
75935;SDS011;64614;32.062;34.834;2024-03-29T03:04:19;11.77;;;4.95;;
75935;SDS011;64614;32.062;34.834;2024-03-29T03:06:44;11.40;;;4.43;;
75935;SDS011;64614;32.062;34.834;2024-03-29T03:09:10;10.63;;;4.53;;
75935;SDS011;64614;32.062;34.834;2024-03-29T03:11:54;10.18;;;4.55;;
75935;SDS011;64614;32.062;34.834;2024-03-29T03:14:20;11.75;;;4.68;;
75935;SDS011;64614;32.062;34.834;2024-03-29T03:16:45;11.88;;;4.28;;
75935;SDS011;64614;32.062;34.834;2024-03-29T03:19:11;9.95;;;4.22;;
75935;SDS011;64614;32.062;34.834;2024-03-29T03:21:37;10.45;;;4.68;;
75935;SDS011;64614;32.062;34.834;2024-03-29T03:24:02;11.93;;;4.78;;
75935;SDS011;64614;32.062;34.834;2024-03-29T03:26:30;11.13;;;4.43;;
75935;SDS011;64614;32.062;34.834;2024-03-29T03:28:55;11.15;;;4.45;;
75935;SDS011;64614;32.062;34.834;2024-03-29T03:31:21;11.40;;;4.60;;
75935;SDS011;64614;32.062;34.834;2024-03-29T03:33:47;8.93;;;4.50;;
75935;SDS011;64614;32.062;34.834;2024-03-29T03:36:13;9.55;;;4.43;;
75935;SDS011;64614;32.062;34.834;2024-03-29T03:38:38;9.85;;;4.50;;
75935;SDS011;64614;32.062;34.834;2024-03-29T03:41:05;8.70;;;4.15;;
75935;SDS011;64614;32.062;34.834;2024-03-29T03:43:31;10.27;;;4.50;;
75935;SDS011;64614;32.062;34.834;2024-03-29T03:46:00;9.85;;;4.40;;
75935;SDS011;64614;32.062;34.834;2024-03-29T03:48:26;9.48;;;4.55;;
75935;SDS011;64614;32.062;34.834;2024-03-29T03:50:54;10.25;;;4.50;;
75935;SDS011;64614;32.062;34.834;2024-03-29T03:53:19;9.95;;;4.80;;
75935;SDS011;64614;32.062;34.834;2024-03-29T03:55:45;8.02;;;4.22;;
75935;SDS011;64614;32.062;34.834;2024-03-29T03:58:11;9.52;;;3.92;;
75935;SDS011;64614;32.062;34.834;2024-03-29T04:00:37;9.00;;;4.85;;
75935;SDS011;64614;32.062;34.834;2024-03-29T04:03:02;9.10;;;4.30;;
75935;SDS011;64614;32.062;34.834;2024-03-29T04:05:29;8.85;;;4.38;;
75935;SDS011;64614;32.062;34.834;2024-03-29T04:07:56;8.95;;;4.30;;
75935;SDS011;64614;32.062;34.834;2024-03-29T04:10:22;9.00;;;4.35;;
75935;SDS011;64614;32.062;34.834;2024-03-29T04:12:50;9.43;;;5.00;;
75935;SDS011;64614;32.062;34.834;2024-03-29T04:15:16;11.10;;;4.47;;
75935;SDS011;64614;32.062;34.834;2024-03-29T04:17:42;9.65;;;4.40;;
75935;SDS011;64614;32.062;34.834;2024-03-29T04:20:07;10.55;;;4.55;;
75935;SDS011;64614;32.062;34.834;2024-03-29T04:22:34;8.70;;;4.30;;
75935;SDS011;64614;32.062;34.834;2024-03-29T04:24:59;9.20;;;4.53;;
75935;SDS011;64614;32.062;34.834;2024-03-29T04:27:25;9.93;;;4.72;;
75935;SDS011;64614;32.062;34.834;2024-03-29T04:29:51;11.00;;;4.95;;
75935;SDS011;64614;32.062;34.834;2024-03-29T04:32:18;10.00;;;4.72;;
75935;SDS011;64614;32.062;34.834;2024-03-29T04:34:46;11.35;;;4.57;;
75935;SDS011;64614;32.062;34.834;2024-03-29T04:37:12;10.98;;;4.78;;
75935;SDS011;64614;32.062;34.834;2024-03-29T04:39:38;13.00;;;5.07;;
75935;SDS011;64614;32.062;34.834;2024-03-29T04:42:04;12.57;;;5.03;;
75935;SDS011;64614;32.062;34.834;2024-03-29T04:44:32;10.48;;;4.68;;
75935;SDS011;64614;32.062;34.834;2024-03-29T04:46:57;9.20;;;4.47;;
75935;SDS011;64614;32.062;34.834;2024-03-29T04:49:23;9.35;;;4.80;;
75935;SDS011;64614;32.062;34.834;2024-03-29T04:52:02;9.98;;;4.55;;
75935;SDS011;64614;32.062;34.834;2024-03-29T04:54:29;10.57;;;4.47;;
75935;SDS011;64614;32.062;34.834;2024-03-29T04:56:55;10.75;;;5.00;;
75935;SDS011;64614;32.062;34.834;2024-03-29T04:59:21;10.15;;;4.53;;
75935;SDS011;64614;32.062;34.834;2024-03-29T05:01:47;11.55;;;4.88;;
75935;SDS011;64614;32.062;34.834;2024-03-29T05:04:16;10.52;;;4.85;;
75935;SDS011;64614;32.062;34.834;2024-03-29T05:06:44;12.20;;;4.78;;
75935;SDS011;64614;32.062;34.834;2024-03-29T05:09:10;8.20;;;4.53;;
75935;SDS011;64614;32.062;34.834;2024-03-29T05:11:39;10.85;;;4.72;;
75935;SDS011;64614;32.062;34.834;2024-03-29T05:14:04;9.73;;;4.78;;
75935;SDS011;64614;32.062;34.834;2024-03-29T05:16:30;10.50;;;5.38;;
75935;SDS011;64614;32.062;34.834;2024-03-29T05:18:57;10.88;;;4.80;;
75935;SDS011;64614;32.062;34.834;2024-03-29T05:21:22;11.90;;;5.10;;
75935;SDS011;64614;32.062;34.834;2024-03-29T05:23:48;10.32;;;4.88;;
75935;SDS011;64614;32.062;34.834;2024-03-29T05:26:14;10.15;;;4.78;;
75935;SDS011;64614;32.062;34.834;2024-03-29T05:28:39;11.05;;;5.13;;
75935;SDS011;64614;32.062;34.834;2024-03-29T05:31:12;9.88;;;5.07;;
75935;SDS011;64614;32.062;34.834;2024-03-29T05:33:39;12.52;;;4.78;;
75935;SDS011;64614;32.062;34.834;2024-03-29T05:36:06;10.23;;;4.95;;
75935;SDS011;64614;32.062;34.834;2024-03-29T05:38:33;9.85;;;4.70;;
75935;SDS011;64614;32.062;34.834;2024-03-29T05:40:59;10.60;;;4.78;;
75935;SDS011;64614;32.062;34.834;2024-03-29T05:43:25;9.88;;;4.47;;
75935;SDS011;64614;32.062;34.834;2024-03-29T05:45:53;9.68;;;4.47;;
75935;SDS011;64614;32.062;34.834;2024-03-29T05:48:19;9.60;;;4.65;;
75935;SDS011;64614;32.062;34.834;2024-03-29T05:50:45;11.45;;;4.90;;
75935;SDS011;64614;32.062;34.834;2024-03-29T05:53:10;9.02;;;4.57;;
75935;SDS011;64614;32.062;34.834;2024-03-29T05:55:36;8.88;;;4.32;;
75935;SDS011;64614;32.062;34.834;2024-03-29T05:58:02;10.07;;;4.07;;
75935;SDS011;64614;32.062;34.834;2024-03-29T06:00:28;9.82;;;4.90;;
75935;SDS011;64614;32.062;34.834;2024-03-29T06:02:54;8.70;;;4.22;;
75935;SDS011;64614;32.062;34.834;2024-03-29T06:05:20;8.70;;;4.20;;
75935;SDS011;64614;32.062;34.834;2024-03-29T06:07:46;10.38;;;4.55;;
75935;SDS011;64614;32.062;34.834;2024-03-29T06:10:11;8.38;;;3.97;;
75935;SDS011;64614;32.062;34.834;2024-03-29T06:12:37;9.57;;;4.20;;
75935;SDS011;64614;32.062;34.834;2024-03-29T06:15:04;9.15;;;4.18;;
75935;SDS011;64614;32.062;34.834;2024-03-29T06:17:49;9.13;;;4.82;;
75935;SDS011;64614;32.062;34.834;2024-03-29T06:20:14;8.77;;;4.10;;
75935;SDS011;64614;32.062;34.834;2024-03-29T06:22:40;7.40;;;3.70;;
75935;SDS011;64614;32.062;34.834;2024-03-29T06:25:06;7.18;;;3.97;;
75935;SDS011;64614;32.062;34.834;2024-03-29T06:27:34;9.68;;;4.50;;
75935;SDS011;64614;32.062;34.834;2024-03-29T06:30:01;8.10;;;4.13;;
75935;SDS011;64614;32.062;34.834;2024-03-29T06:32:28;8.48;;;4.25;;
75935;SDS011;64614;32.062;34.834;2024-03-29T06:34:53;7.40;;;3.83;;
75935;SDS011;64614;32.062;34.834;2024-03-29T06:37:19;9.68;;;4.32;;
75935;SDS011;64614;32.062;34.834;2024-03-29T06:39:47;8.23;;;4.18;;
75935;SDS011;64614;32.062;34.834;2024-03-29T06:42:13;9.52;;;4.20;;
75935;SDS011;64614;32.062;34.834;2024-03-29T06:44:39;9.38;;;4.63;;
75935;SDS011;64614;32.062;34.834;2024-03-29T06:47:05;8.45;;;4.30;;
75935;SDS011;64614;32.062;34.834;2024-03-29T06:49:30;9.38;;;4.53;;
75935;SDS011;64614;32.062;34.834;2024-03-29T06:51:57;10.07;;;4.40;;
75935;SDS011;64614;32.062;34.834;2024-03-29T06:54:25;8.93;;;4.50;;
75935;SDS011;64614;32.062;34.834;2024-03-29T06:56:52;9.77;;;4.60;;
75935;SDS011;64614;32.062;34.834;2024-03-29T06:59:18;9.50;;;4.63;;
75935;SDS011;64614;32.062;34.834;2024-03-29T07:01:44;9.68;;;4.30;;
75935;SDS011;64614;32.062;34.834;2024-03-29T07:04:10;9.50;;;4.60;;
75935;SDS011;64614;32.062;34.834;2024-03-29T07:06:36;9.77;;;4.20;;
75935;SDS011;64614;32.062;34.834;2024-03-29T07:09:03;8.35;;;4.32;;
75935;SDS011;64614;32.062;34.834;2024-03-29T07:11:29;9.32;;;4.70;;
75935;SDS011;64614;32.062;34.834;2024-03-29T07:13:55;8.95;;;4.53;;
75935;SDS011;64614;32.062;34.834;2024-03-29T07:16:20;7.70;;;4.65;;
75935;SDS011;64614;32.062;34.834;2024-03-29T07:18:46;9.05;;;4.32;;
75935;SDS011;64614;32.062;34.834;2024-03-29T07:21:12;8.27;;;4.65;;
75935;SDS011;64614;32.062;34.834;2024-03-29T07:23:37;9.00;;;4.50;;
75935;SDS011;64614;32.062;34.834;2024-03-29T07:26:03;11.27;;;4.75;;
75935;SDS011;64614;32.062;34.834;2024-03-29T07:28:30;9.40;;;4.60;;
75935;SDS011;64614;32.062;34.834;2024-03-29T07:30:57;9.13;;;4.65;;
75935;SDS011;64614;32.062;34.834;2024-03-29T07:33:23;9.65;;;4.82;;
75935;SDS011;64614;32.062;34.834;2024-03-29T07:35:54;10.25;;;4.60;;
75935;SDS011;64614;32.062;34.834;2024-03-29T07:38:23;8.13;;;4.75;;
75935;SDS011;64614;32.062;34.834;2024-03-29T07:40:49;10.35;;;4.40;;
75935;SDS011;64614;32.062;34.834;2024-03-29T07:43:16;8.75;;;4.85;;
75935;SDS011;64614;32.062;34.834;2024-03-29T07:45:44;9.20;;;4.63;;
75935;SDS011;64614;32.062;34.834;2024-03-29T07:50:43;9.32;;;4.72;;
75935;SDS011;64614;32.062;34.834;2024-03-29T07:53:10;8.90;;;4.60;;
75935;SDS011;64614;32.062;34.834;2024-03-29T07:55:37;9.73;;;4.63;;
75935;SDS011;64614;32.062;34.834;2024-03-29T07:58:04;8.13;;;4.40;;
75935;SDS011;64614;32.062;34.834;2024-03-29T08:00:34;10.02;;;4.68;;
75935;SDS011;64614;32.062;34.834;2024-03-29T08:03:04;9.68;;;4.55;;
75935;SDS011;64614;32.062;34.834;2024-03-29T08:05:29;9.88;;;4.68;;
75935;SDS011;64614;32.062;34.834;2024-03-29T08:07:55;10.80;;;5.28;;
75935;SDS011;64614;32.062;34.834;2024-03-29T08:10:21;10.27;;;4.82;;
75935;SDS011;64614;32.062;34.834;2024-03-29T08:12:47;8.93;;;5.05;;
75935;SDS011;64614;32.062;34.834;2024-03-29T08:15:12;11.23;;;4.72;;
75935;SDS011;64614;32.062;34.834;2024-03-29T08:17:38;8.85;;;5.13;;
75935;SDS011;64614;32.062;34.834;2024-03-29T08:20:04;9.27;;;4.80;;
75935;SDS011;64614;32.062;34.834;2024-03-29T08:22:30;9.60;;;4.95;;
75935;SDS011;64614;32.062;34.834;2024-03-29T08:24:58;11.07;;;5.07;;
75935;SDS011;64614;32.062;34.834;2024-03-29T08:27:25;8.70;;;4.60;;
75935;SDS011;64614;32.062;34.834;2024-03-29T08:29:51;9.02;;;4.57;;
75935;SDS011;64614;32.062;34.834;2024-03-29T08:32:17;9.30;;;4.90;;
75935;SDS011;64614;32.062;34.834;2024-03-29T08:34:42;10.82;;;4.93;;
75935;SDS011;64614;32.062;34.834;2024-03-29T08:37:08;7.63;;;4.85;;
75935;SDS011;64614;32.062;34.834;2024-03-29T08:39:34;11.98;;;5.72;;
75935;SDS011;64614;32.062;34.834;2024-03-29T08:42:00;12.80;;;6.47;;
75935;SDS011;64614;32.062;34.834;2024-03-29T08:44:33;14.88;;;7.00;;
75935;SDS011;64614;32.062;34.834;2024-03-29T08:46:59;13.95;;;7.03;;
75935;SDS011;64614;32.062;34.834;2024-03-29T08:49:29;13.23;;;6.55;;
75935;SDS011;64614;32.062;34.834;2024-03-29T08:51:56;13.73;;;6.40;;
75935;SDS011;64614;32.062;34.834;2024-03-29T08:54:24;12.60;;;6.53;;
75935;SDS011;64614;32.062;34.834;2024-03-29T08:56:50;12.88;;;6.60;;
75935;SDS011;64614;32.062;34.834;2024-03-29T08:59:15;12.68;;;6.72;;
75935;SDS011;64614;32.062;34.834;2024-03-29T09:01:42;13.35;;;7.03;;
75935;SDS011;64614;32.062;34.834;2024-03-29T09:04:09;16.58;;;7.88;;
75935;SDS011;64614;32.062;34.834;2024-03-29T09:06:39;13.95;;;7.50;;
75935;SDS011;64614;32.062;34.834;2024-03-29T09:09:05;14.93;;;7.65;;
75935;SDS011;64614;32.062;34.834;2024-03-29T09:11:31;12.50;;;6.55;;
75935;SDS011;64614;32.062;34.834;2024-03-29T09:13:57;13.48;;;7.53;;
75935;SDS011;64614;32.062;34.834;2024-03-29T09:16:27;14.40;;;6.78;;
75935;SDS011;64614;32.062;34.834;2024-03-29T09:18:55;12.30;;;7.55;;
75935;SDS011;64614;32.062;34.834;2024-03-29T09:21:21;12.85;;;6.80;;
75935;SDS011;64614;32.062;34.834;2024-03-29T09:23:46;13.32;;;7.35;;
75935;SDS011;64614;32.062;34.834;2024-03-29T09:26:14;13.52;;;6.82;;
75935;SDS011;64614;32.062;34.834;2024-03-29T09:28:40;12.85;;;6.78;;
75935;SDS011;64614;32.062;34.834;2024-03-29T09:31:06;13.60;;;6.70;;
75935;SDS011;64614;32.062;34.834;2024-03-29T09:33:32;12.38;;;7.05;;
75935;SDS011;64614;32.062;34.834;2024-03-29T09:35:57;13.15;;;6.82;;
75935;SDS011;64614;32.062;34.834;2024-03-29T09:38:26;12.00;;;6.90;;
75935;SDS011;64614;32.062;34.834;2024-03-29T09:41:35;12.32;;;6.82;;
75935;SDS011;64614;32.062;34.834;2024-03-29T09:43:44;12.73;;;6.90;;
75935;SDS011;64614;32.062;34.834;2024-03-29T09:46:14;11.77;;;6.70;;
75935;SDS011;64614;32.062;34.834;2024-03-29T09:48:41;12.27;;;6.25;;
75935;SDS011;64614;32.062;34.834;2024-03-29T09:51:07;11.48;;;6.85;;
75935;SDS011;64614;32.062;34.834;2024-03-29T09:53:34;12.18;;;6.70;;
75935;SDS011;64614;32.062;34.834;2024-03-29T09:56:05;11.75;;;6.70;;
75935;SDS011;64614;32.062;34.834;2024-03-29T09:58:31;12.15;;;7.13;;
75935;SDS011;64614;32.062;34.834;2024-03-29T10:00:58;13.18;;;7.63;;
75935;SDS011;64614;32.062;34.834;2024-03-29T10:03:24;12.95;;;7.32;;
75935;SDS011;64614;32.062;34.834;2024-03-29T10:05:58;11.88;;;6.80;;
75935;SDS011;64614;32.062;34.834;2024-03-29T10:08:28;12.63;;;7.38;;
75935;SDS011;64614;32.062;34.834;2024-03-29T10:10:57;12.07;;;7.22;;
75935;SDS011;64614;32.062;34.834;2024-03-29T10:13:23;11.32;;;7.00;;
75935;SDS011;64614;32.062;34.834;2024-03-29T10:15:50;12.52;;;6.90;;
75935;SDS011;64614;32.062;34.834;2024-03-29T10:20:45;12.52;;;6.57;;
75935;SDS011;64614;32.062;34.834;2024-03-29T10:23:11;10.90;;;6.55;;
75935;SDS011;64614;32.062;34.834;2024-03-29T10:25:37;11.02;;;7.40;;
75935;SDS011;64614;32.062;34.834;2024-03-29T10:28:03;10.75;;;6.78;;
75935;SDS011;64614;32.062;34.834;2024-03-29T10:30:29;12.00;;;7.13;;
75935;SDS011;64614;32.062;34.834;2024-03-29T10:32:56;10.90;;;6.75;;
75935;SDS011;64614;32.062;34.834;2024-03-29T10:35:22;10.43;;;7.10;;
75935;SDS011;64614;32.062;34.834;2024-03-29T10:37:49;11.40;;;7.05;;
75935;SDS011;64614;32.062;34.834;2024-03-29T10:40:17;12.35;;;7.28;;
75935;SDS011;64614;32.062;34.834;2024-03-29T10:42:44;11.25;;;7.00;;
75935;SDS011;64614;32.062;34.834;2024-03-29T10:45:13;11.35;;;6.88;;
75935;SDS011;64614;32.062;34.834;2024-03-29T10:47:39;11.50;;;6.75;;
75935;SDS011;64614;32.062;34.834;2024-03-29T10:50:10;10.98;;;7.35;;
75935;SDS011;64614;32.062;34.834;2024-03-29T10:52:38;10.60;;;6.80;;
75935;SDS011;64614;32.062;34.834;2024-03-29T10:55:09;10.68;;;6.68;;
75935;SDS011;64614;32.062;34.834;2024-03-29T10:57:38;9.98;;;6.15;;
75935;SDS011;64614;32.062;34.834;2024-03-29T11:02:57;11.02;;;6.70;;
75935;SDS011;64614;32.062;34.834;2024-03-29T11:05:49;10.80;;;7.00;;
75935;SDS011;64614;32.062;34.834;2024-03-29T11:08:22;11.15;;;6.70;;
75935;SDS011;64614;32.062;34.834;2024-03-29T11:10:50;11.82;;;7.20;;
75935;SDS011;64614;32.062;34.834;2024-03-29T11:13:26;10.27;;;6.40;;
75935;SDS011;64614;32.062;34.834;2024-03-29T11:15:53;11.15;;;6.75;;
75935;SDS011;64614;32.062;34.834;2024-03-29T11:18:19;11.43;;;6.90;;
75935;SDS011;64614;32.062;34.834;2024-03-29T11:20:46;10.95;;;6.68;;
75935;SDS011;64614;32.062;34.834;2024-03-29T11:23:16;10.80;;;6.05;;
75935;SDS011;64614;32.062;34.834;2024-03-29T11:25:50;10.20;;;6.40;;
75935;SDS011;64614;32.062;34.834;2024-03-29T11:28:36;11.98;;;6.40;;
75935;SDS011;64614;32.062;34.834;2024-03-29T11:31:06;8.60;;;5.57;;
75935;SDS011;64614;32.062;34.834;2024-03-29T11:33:44;10.57;;;6.43;;
75935;SDS011;64614;32.062;34.834;2024-03-29T11:36:12;9.80;;;6.57;;
75935;SDS011;64614;32.062;34.834;2024-03-29T11:38:41;10.18;;;6.53;;
75935;SDS011;64614;32.062;34.834;2024-03-29T11:41:11;9.75;;;6.10;;
75935;SDS011;64614;32.062;34.834;2024-03-29T11:43:37;9.85;;;6.28;;
75935;SDS011;64614;32.062;34.834;2024-03-29T11:46:07;9.68;;;6.15;;
75935;SDS011;64614;32.062;34.834;2024-03-29T11:48:34;10.48;;;6.50;;
75935;SDS011;64614;32.062;34.834;2024-03-29T11:51:01;10.57;;;6.43;;
75935;SDS011;64614;32.062;34.834;2024-03-29T11:53:31;9.60;;;5.97;;
75935;SDS011;64614;32.062;34.834;2024-03-29T11:55:58;10.43;;;6.95;;
75935;SDS011;64614;32.062;34.834;2024-03-29T11:58:25;10.02;;;6.45;;
75935;SDS011;64614;32.062;34.834;2024-03-29T12:00:52;11.20;;;6.53;;
75935;SDS011;64614;32.062;34.834;2024-03-29T12:03:19;9.95;;;6.40;;
75935;SDS011;64614;32.062;34.834;2024-03-29T12:05:48;10.95;;;6.63;;
75935;SDS011;64614;32.062;34.834;2024-03-29T12:08:19;9.63;;;6.28;;
75935;SDS011;64614;32.062;34.834;2024-03-29T12:10:45;9.55;;;6.43;;
75935;SDS011;64614;32.062;34.834;2024-03-29T12:13:11;10.80;;;6.70;;
75935;SDS011;64614;32.062;34.834;2024-03-29T12:15:37;11.23;;;7.50;;
75935;SDS011;64614;32.062;34.834;2024-03-29T12:18:03;10.88;;;6.65;;
75935;SDS011;64614;32.062;34.834;2024-03-29T12:20:34;11.43;;;7.00;;
75935;SDS011;64614;32.062;34.834;2024-03-29T12:23:04;9.88;;;6.47;;
75935;SDS011;64614;32.062;34.834;2024-03-29T12:25:32;10.40;;;6.50;;
75935;SDS011;64614;32.062;34.834;2024-03-29T12:27:59;10.02;;;6.78;;
75935;SDS011;64614;32.062;34.834;2024-03-29T12:30:25;10.48;;;6.30;;
75935;SDS011;64614;32.062;34.834;2024-03-29T12:33:05;9.82;;;6.47;;
75935;SDS011;64614;32.062;34.834;2024-03-29T12:35:32;9.93;;;6.68;;
75935;SDS011;64614;32.062;34.834;2024-03-29T12:38:02;10.05;;;6.13;;
75935;SDS011;64614;32.062;34.834;2024-03-29T12:40:29;9.02;;;6.10;;
75935;SDS011;64614;32.062;34.834;2024-03-29T12:43:02;10.88;;;6.07;;
75935;SDS011;64614;32.062;34.834;2024-03-29T12:45:33;11.43;;;6.70;;
75935;SDS011;64614;32.062;34.834;2024-03-29T12:48:08;9.98;;;6.10;;
75935;SDS011;64614;32.062;34.834;2024-03-29T12:50:42;11.98;;;6.07;;
75935;SDS011;64614;32.062;34.834;2024-03-29T12:53:10;10.02;;;6.03;;
75935;SDS011;64614;32.062;34.834;2024-03-29T12:55:37;9.95;;;6.03;;
75935;SDS011;64614;32.062;34.834;2024-03-29T12:58:07;9.27;;;5.85;;
75935;SDS011;64614;32.062;34.834;2024-03-29T13:00:35;10.95;;;6.40;;
75935;SDS011;64614;32.062;34.834;2024-03-29T13:03:01;10.85;;;6.35;;
75935;SDS011;64614;32.062;34.834;2024-03-29T13:05:27;10.02;;;6.07;;
75935;SDS011;64614;32.062;34.834;2024-03-29T13:07:59;10.98;;;5.88;;
75935;SDS011;64614;32.062;34.834;2024-03-29T13:10:25;11.13;;;6.13;;
75935;SDS011;64614;32.062;34.834;2024-03-29T13:12:51;9.07;;;6.10;;
75935;SDS011;64614;32.062;34.834;2024-03-29T13:15:21;9.45;;;5.80;;
75935;SDS011;64614;32.062;34.834;2024-03-29T13:17:54;10.57;;;6.13;;
75935;SDS011;64614;32.062;34.834;2024-03-29T13:20:21;10.18;;;5.82;;
75935;SDS011;64614;32.062;34.834;2024-03-29T13:22:48;11.57;;;6.43;;
75935;SDS011;64614;32.062;34.834;2024-03-29T13:25:18;10.65;;;5.95;;
75935;SDS011;64614;32.062;34.834;2024-03-29T13:27:47;10.45;;;6.03;;
75935;SDS011;64614;32.062;34.834;2024-03-29T13:30:14;10.80;;;6.20;;
75935;SDS011;64614;32.062;34.834;2024-03-29T13:32:43;9.73;;;5.82;;
75935;SDS011;64614;32.062;34.834;2024-03-29T13:35:13;11.15;;;6.55;;
75935;SDS011;64614;32.062;34.834;2024-03-29T13:37:39;14.35;;;6.97;;
75935;SDS011;64614;32.062;34.834;2024-03-29T13:40:06;13.75;;;6.80;;
75935;SDS011;64614;32.062;34.834;2024-03-29T13:42:33;12.00;;;6.63;;
75935;SDS011;64614;32.062;34.834;2024-03-29T13:45:06;11.00;;;6.68;;
75935;SDS011;64614;32.062;34.834;2024-03-29T13:47:33;11.18;;;6.68;;
75935;SDS011;64614;32.062;34.834;2024-03-29T13:50:00;10.45;;;6.45;;
75935;SDS011;64614;32.062;34.834;2024-03-29T13:52:26;11.63;;;6.82;;
75935;SDS011;64614;32.062;34.834;2024-03-29T13:54:55;10.02;;;6.72;;
75935;SDS011;64614;32.062;34.834;2024-03-29T13:57:23;11.13;;;7.28;;
75935;SDS011;64614;32.062;34.834;2024-03-29T13:59:49;11.00;;;6.90;;
75935;SDS011;64614;32.062;34.834;2024-03-29T14:02:18;11.75;;;6.82;;
75935;SDS011;64614;32.062;34.834;2024-03-29T14:04:45;12.43;;;6.68;;
75935;SDS011;64614;32.062;34.834;2024-03-29T14:07:13;10.10;;;6.05;;
75935;SDS011;64614;32.062;34.834;2024-03-29T14:09:40;10.80;;;6.18;;
75935;SDS011;64614;32.062;34.834;2024-03-29T14:12:07;10.45;;;6.25;;
75935;SDS011;64614;32.062;34.834;2024-03-29T14:14:33;11.35;;;6.53;;
75935;SDS011;64614;32.062;34.834;2024-03-29T14:16:59;11.40;;;5.90;;
75935;SDS011;64614;32.062;34.834;2024-03-29T14:19:33;12.82;;;6.63;;
75935;SDS011;64614;32.062;34.834;2024-03-29T14:22:00;10.48;;;6.93;;
75935;SDS011;64614;32.062;34.834;2024-03-29T14:24:31;10.70;;;6.18;;
75935;SDS011;64614;32.062;34.834;2024-03-29T14:27:02;10.80;;;6.07;;
75935;SDS011;64614;32.062;34.834;2024-03-29T14:29:30;12.43;;;6.72;;
75935;SDS011;64614;32.062;34.834;2024-03-29T14:31:56;11.55;;;6.20;;
75935;SDS011;64614;32.062;34.834;2024-03-29T14:34:22;10.07;;;5.38;;